Time;durP1;ratioP1;P1;durP2;ratioP2;P2;SDS_P1;SDS_P2;PMS_P1;PMS_P2;Temp;Humidity;BMP_temperature;BMP_pressure;BME280_temperature;BME280_humidity;BME280_pressure;Samples;Min_cycle;Max_cycle;Signal;HPM_P1;HPM_P2
2021/12/17 00:01:08;;;;;;;0.63;0.63;;;22.90;35.40;;;;;;5111558;28;20088;-68
2021/12/17 00:03:43;;;;;;;0.52;0.52;;;22.90;35.40;;;;;;5128269;28;20055;-68
2021/12/17 00:06:18;;;;;;;0.65;0.60;;;22.90;35.40;;;;;;5128506;27;20380;-68
2021/12/17 00:08:49;;;;;;;0.57;0.50;;;22.90;35.40;;;;;;5132757;27;20541;-68
2021/12/17 00:11:19;;;;;;;0.60;0.60;;;22.90;35.40;;;;;;5130371;27;20047;-68
2021/12/17 00:13:47;;;;;;;0.40;0.40;;;22.90;35.40;;;;;;5131930;27;20047;-68
2021/12/17 00:16:20;;;;;;;0.63;0.57;;;22.90;35.40;;;;;;5131414;27;20039;-68
2021/12/17 00:19:14;;;;;;;0.82;0.57;;;22.90;35.40;;;;;;5132940;27;20047;-68
2021/12/17 00:50:22;;;;;;;0.60;0.60;;;22.80;35.30;;;;;;5115054;27;20381;-69
2021/12/17 00:52:40;;;;;;;0.50;0.50;;;22.80;35.30;;;;;;5131287;27;20477;-69
2021/12/17 00:55:08;;;;;;;0.50;0.40;;;22.80;35.30;;;;;;5129337;27;20080;-69
2021/12/17 00:57:40;;;;;;;0.77;0.43;;;22.80;35.30;;;;;;5131135;27;20055;-69
2021/12/17 01:00:14;;;;;;;0.60;0.60;;;22.80;35.30;;;;;;5130410;27;20104;-69
2021/12/17 01:02:42;;;;;;;0.30;0.30;;;22.80;35.30;;;;;;5113635;27;20043;-68
2021/12/17 01:05:15;;;;;;;0.50;0.50;;;22.80;35.20;;;;;;5131495;27;20053;-68
2021/12/17 01:07:46;;;;;;;0.55;0.55;;;22.80;35.30;;;;;;5131509;27;20488;-68
2021/12/17 01:10:19;;;;;;;0.65;0.45;;;22.80;35.30;;;;;;5131253;27;20051;-68
2021/12/17 01:12:46;;;;;;;0.40;0.40;;;22.80;35.20;;;;;;5131133;27;20100;-69
2021/12/17 01:15:17;;;;;;;0.40;0.40;;;22.80;35.20;;;;;;5136453;27;20235;-69
2021/12/17 01:17:46;;;;;;;0.60;0.60;;;22.80;35.30;;;;;;5151169;27;20046;-69
2021/12/17 01:35:20;;;;;;;0.57;0.50;;;22.80;35.20;;;;;;5151629;27;20071;-68
2021/12/17 01:37:42;;;;;;;0.50;0.50;;;22.80;35.30;;;;;;5136987;27;20043;-68
2021/12/17 01:40:45;;;;;;;0.85;0.85;;;22.80;35.30;;;;;;5130368;27;20135;-68
2021/12/17 01:42:35;;;;;;;0.50;0.50;;;22.80;35.30;;;;;;5151756;27;20701;-69
2021/12/17 01:45:03;;;;;;;0.70;0.68;;;22.70;35.20;;;;;;5151302;27;20043;-68
2021/12/17 01:47:32;;;;;;;0.50;0.50;;;22.80;35.20;;;;;;5151612;27;20042;-69
2021/12/17 01:55:49;;;;;;;0.60;0.47;;;22.80;35.20;;;;;;5151638;27;20452;-69
2021/12/17 02:01:06;;;;;;;0.52;0.52;;;22.80;35.20;;;;;;5151105;27;20042;-68
2021/12/17 02:03:33;;;;;;;0.50;0.50;;;22.80;35.20;;;;;;5150434;27;20043;-69
2021/12/17 02:06:03;;;;;;;0.60;0.60;;;22.80;35.20;;;;;;5151242;27;20095;-68
2021/12/17 02:08:30;;;;;;;0.32;0.32;;;22.80;35.20;;;;;;5151082;27;20047;-70
2021/12/17 02:19:43;;;;;;;0.30;0.30;;;22.70;35.20;;;;;;5130431;27;20104;-68
2021/12/17 02:30:51;;;;;;;0.60;0.55;;;22.70;35.20;;;;;;5129847;27;20061;-68
2021/12/17 02:33:15;;;;;;;0.80;0.80;;;22.70;35.30;;;;;;5130302;27;20047;-68
2021/12/17 02:35:45;;;;;;;0.50;0.50;;;22.70;35.30;;;;;;5128185;27;20051;-68
2021/12/17 02:38:14;;;;;;;0.47;0.47;;;22.70;35.30;;;;;;5130107;27;20051;-68
2021/12/17 02:46:16;;;;;;;0.43;0.43;;;22.70;35.20;;;;;;5129269;27;20491;-68
2021/12/17 02:48:44;;;;;;;0.38;0.38;;;22.70;35.20;;;;;;5129994;27;20108;-68
2021/12/17 02:51:12;;;;;;;0.45;0.40;;;22.70;35.20;;;;;;5129141;27;20050;-68
2021/12/17 02:53:39;;;;;;;0.50;0.50;;;22.70;35.30;;;;;;5130246;27;20054;-69
2021/12/17 02:56:08;;;;;;;0.55;0.55;;;22.70;35.20;;;;;;5128752;27;20109;-68
2021/12/17 02:58:38;;;;;;;0.20;0.20;;;22.70;35.20;;;;;;5128915;27;20047;-68
2021/12/17 03:01:08;;;;;;;0.40;0.40;;;22.70;35.20;;;;;;5129613;27;20058;-68
2021/12/17 03:03:38;;;;;;;0.40;0.40;;;22.70;35.10;;;;;;5128444;27;20047;-68
2021/12/17 03:06:05;;;;;;;0.32;0.32;;;22.70;35.10;;;;;;5129331;27;20023;-68
2021/12/17 03:08:33;;;;;;;0.43;0.43;;;22.70;35.10;;;;;;5128625;27;20058;-68
2021/12/17 03:11:01;;;;;;;0.50;0.50;;;22.70;35.10;;;;;;5129138;27;20450;-68
2021/12/17 03:13:33;;;;;;;0.47;0.47;;;22.70;35.10;;;;;;5129062;27;20073;-68
2021/12/17 03:16:12;;;;;;;0.60;0.50;;;22.60;35.10;;;;;;5128331;27;20446;-68
2021/12/17 03:19:03;;;;;;;0.60;0.40;;;22.70;35.20;;;;;;5128702;27;20605;-68
2021/12/17 03:24:15;;;;;;;0.65;0.40;;;22.60;35.00;;;;;;5127799;27;20079;-68
2021/12/17 03:26:42;;;;;;;0.63;0.57;;;22.60;35.10;;;;;;5128282;27;20055;-68
2021/12/17 03:29:09;;;;;;;0.40;0.40;;;22.60;35.00;;;;;;5109930;27;20455;-68
2021/12/17 03:31:37;;;;;;;0.40;0.40;;;22.60;35.00;;;;;;5128776;27;20089;-68
2021/12/17 03:34:18;;;;;;;0.30;0.30;;;22.60;35.00;;;;;;5128336;27;20047;-68
2021/12/17 03:36:54;;;;;;;0.47;0.30;;;22.60;35.00;;;;;;5126042;27;20047;-68
2021/12/17 03:39:23;;;;;;;0.50;0.50;;;22.60;35.00;;;;;;5127302;27;20479;-68
2021/12/17 03:41:52;;;;;;;0.50;0.50;;;22.60;35.00;;;;;;5127986;27;20047;-68
2021/12/17 03:44:20;;;;;;;0.60;0.60;;;22.60;34.90;;;;;;5148353;27;20068;-68
2021/12/17 03:46:49;;;;;;;0.40;0.40;;;22.60;35.40;;;;;;5148465;27;20448;-69
2021/12/17 03:49:18;;;;;;;0.57;0.57;;;22.60;34.90;;;;;;5148794;27;20100;-68
2021/12/17 03:52:04;;;;;;;0.70;0.43;;;22.50;34.80;;;;;;5149123;27;20064;-68
2021/12/17 03:54:33;;;;;;;0.57;0.57;;;22.50;34.80;;;;;;5149237;27;20050;-68
2021/12/17 03:57:01;;;;;;;0.40;0.40;;;22.60;34.90;;;;;;5148704;27;20083;-68
2021/12/17 03:59:28;;;;;;;0.30;0.30;;;22.50;34.90;;;;;;5148777;27;20054;-68
2021/12/17 04:01:55;;;;;;;0.50;0.50;;;22.50;34.90;;;;;;5149430;27;20740;-68
2021/12/17 04:04:22;;;;;;;0.65;0.40;;;22.50;35.00;;;;;;5148568;27;20054;-68
2021/12/17 04:06:50;;;;;;;0.40;0.40;;;22.50;35.00;;;;;;5130725;27;20097;-68
2021/12/17 04:09:20;;;;;;;0.32;0.30;;;22.50;35.00;;;;;;5127457;27;20043;-68
2021/12/17 04:11:47;;;;;;;0.60;0.50;;;22.50;35.00;;;;;;5128277;28;20100;-68
2021/12/17 04:14:14;;;;;;;0.30;0.30;;;22.50;35.00;;;;;;5128031;28;20047;-68
2021/12/17 04:16:42;;;;;;;0.30;0.30;;;22.50;35.00;;;;;;5127184;28;20079;-68
2021/12/17 04:19:10;;;;;;;0.38;0.38;;;22.50;34.90;;;;;;5127528;28;20069;-68
2021/12/17 04:21:37;;;;;;;0.63;0.50;;;22.50;34.90;;;;;;5148245;27;20062;-68
2021/12/17 04:24:04;;;;;;;0.50;0.50;;;22.50;34.90;;;;;;5148733;27;20547;-68
2021/12/17 04:26:31;;;;;;;0.40;0.40;;;22.50;34.90;;;;;;5149029;27;20039;-68
2021/12/17 04:28:59;;;;;;;0.50;0.50;;;22.50;34.90;;;;;;5130708;27;20046;-68
2021/12/17 04:31:35;;;;;;;0.60;0.35;;;22.50;34.90;;;;;;5148838;27;20127;-68
2021/12/17 04:34:03;;;;;;;0.52;0.40;;;22.50;35.00;;;;;;5148334;27;20047;-68
2021/12/17 04:36:33;;;;;;;0.63;0.50;;;22.50;35.00;;;;;;5129690;27;20194;-68
2021/12/17 04:39:01;;;;;;;;;;;22.50;34.90;;;;;;5121738;28;20047;-68
2021/12/17 04:41:45;;;;;;;0.43;0.43;;;22.50;34.90;;;;;;5122749;28;19926;-68
2021/12/17 04:44:25;;;;;;;0.28;0.28;;;22.40;35.40;;;;;;5124844;28;20492;-68
2021/12/17 04:57:59;;;;;;;0.32;0.32;;;22.40;34.90;;;;;;5128421;27;20058;-69
2021/12/17 05:00:29;;;;;;;0.20;0.20;;;22.40;34.90;;;;;;5130602;27;20419;-68
2021/12/17 05:02:59;;;;;;;0.20;0.20;;;22.40;34.90;;;;;;5130836;27;20302;-69
2021/12/17 05:05:33;;;;;;;0.55;0.43;;;22.40;34.90;;;;;;5124862;27;20122;-68
2021/12/17 05:08:09;;;;;;;0.40;0.40;;;22.40;34.90;;;;;;5131919;27;20051;-68
2021/12/17 05:11:02;;;;;;;1.38;0.60;;;22.40;34.80;;;;;;5130962;27;20089;-68
2021/12/17 05:19:08;;;;;;;0.40;0.40;;;22.40;34.80;;;;;;5131629;27;20051;-68
2021/12/17 05:21:36;;;;;;;2.33;0.47;;;22.40;34.80;;;;;;5119032;27;20039;-68
2021/12/17 05:27:26;;;;;;;0.50;0.50;;;22.40;34.80;;;;;;5110707;28;20113;-68
2021/12/17 05:29:53;;;;;;;0.60;0.60;;;22.40;34.80;;;;;;5110220;28;20086;-68
2021/12/17 05:32:20;;;;;;;0.32;0.32;;;22.40;34.80;;;;;;5092405;28;20520;-68
2021/12/17 05:34:48;;;;;;;0.20;0.20;;;22.40;34.80;;;;;;5091978;28;20059;-68
2021/12/17 05:37:15;;;;;;;0.30;0.30;;;22.40;34.70;;;;;;5123860;27;20512;-68
2021/12/17 05:39:42;;;;;;;0.55;0.55;;;22.40;34.70;;;;;;5129672;27;20051;-68
2021/12/17 05:42:09;;;;;;;0.40;0.40;;;22.40;34.70;;;;;;5130393;27;20047;-68
2021/12/17 05:44:37;;;;;;;0.40;0.40;;;22.40;34.70;;;;;;5125770;27;20499;-68
2021/12/17 05:47:04;;;;;;;0.30;0.30;;;22.40;34.80;;;;;;5129678;27;20080;-70
2021/12/17 05:49:32;;;;;;;0.60;0.35;;;22.40;34.70;;;;;;5113621;27;20091;-68
2021/12/17 05:51:59;;;;;;;0.40;0.40;;;22.40;34.70;;;;;;5128132;27;20092;-68
2021/12/17 05:54:27;;;;;;;1.13;0.47;;;22.40;34.80;;;;;;5128985;27;20319;-67
2021/12/17 05:56:54;;;;;;;0.43;0.43;;;22.40;34.70;;;;;;5123855;27;20055;-67
2021/12/17 05:59:21;;;;;;;0.40;0.40;;;22.40;34.60;;;;;;5108152;27;20047;-67
2021/12/17 06:01:49;;;;;;;0.30;0.30;;;22.40;34.60;;;;;;5125390;27;20076;-67
2021/12/17 06:04:16;;;;;;;0.60;0.60;;;22.40;34.60;;;;;;5125340;27;20058;-67
2021/12/17 06:06:46;;;;;;;0.52;0.50;;;22.40;34.60;;;;;;5130820;27;20053;-67
2021/12/17 06:09:13;;;;;;;0.70;0.70;;;22.40;34.40;;;;;;5135344;27;20092;-68
2021/12/17 06:11:40;;;;;;;0.70;0.70;;;22.30;34.30;;;;;;5132508;27;20112;-67
2021/12/17 06:14:11;;;;;;;0.65;0.50;;;22.30;34.20;;;;;;5126586;27;20051;-73
2021/12/17 06:16:38;;;;;;;0.57;0.55;;;22.30;34.10;;;;;;5130608;27;20825;-71
2021/12/17 06:19:05;;;;;;;0.55;0.47;;;22.30;34.20;;;;;;5134352;27;20128;-68
2021/12/17 06:21:32;;;;;;;0.75;0.70;;;22.30;34.80;;;;;;5104773;27;20039;-70
2021/12/17 06:24:00;;;;;;;1.00;0.95;;;22.30;34.10;;;;;;5129853;27;20043;-70
2021/12/17 06:26:28;;;;;;;0.73;0.73;;;22.30;34.20;;;;;;5120968;27;20043;-68
2021/12/17 06:28:55;;;;;;;0.50;0.50;;;22.30;34.20;;;;;;5129940;27;20047;-68
2021/12/17 06:31:23;;;;;;;0.52;0.52;;;22.30;34.30;;;;;;5128470;27;20047;-68
2021/12/17 06:33:51;;;;;;;0.60;0.60;;;22.30;34.30;;;;;;5125377;27;20096;-70
2021/12/17 06:36:18;;;;;;;0.40;0.40;;;22.30;34.30;;;;;;5117090;27;20513;-70
2021/12/17 06:38:45;;;;;;;0.40;0.40;;;22.40;34.90;;;;;;5101551;27;20127;-71
2021/12/17 06:41:12;;;;;;;0.50;0.50;;;22.40;34.30;;;;;;5106550;27;20758;-70
2021/12/17 06:47:13;;;;;;;1.08;0.70;;;22.40;34.20;;;;;;5121624;27;20074;-72
2021/12/17 06:49:51;;;;;;;0.98;0.65;;;22.40;34.20;;;;;;5128204;27;20126;-68
2021/12/17 07:01:13;;;;;;;0.70;0.70;;;22.50;35.00;;;;;;5115045;27;20039;-69
2021/12/17 07:06:51;;;;;;;0.55;0.55;;;22.70;35.00;;;;;;5123983;27;20511;-74
2021/12/17 07:10:02;;;;;;;0.70;0.70;;;22.70;34.80;;;;;;5131483;27;20100;-66
2021/12/17 07:17:32;;;;;;;0.90;0.80;;;22.90;34.80;;;;;;5123317;27;20047;-68
2021/12/17 07:23:05;;;;;;;0.82;0.82;;;23.00;34.20;;;;;;5113769;27;20096;-66
2021/12/17 07:29:04;;;;;;;0.73;0.70;;;23.00;33.80;;;;;;5127934;27;20400;-72
2021/12/17 07:32:14;;;;;;;0.68;0.50;;;23.00;33.90;;;;;;5130253;27;20109;-66
2021/12/17 07:34:01;;;;;;;1.70;0.65;;;23.00;34.10;;;;;;5129046;27;20047;-65
2021/12/17 07:39:17;;;;;;;1.05;0.80;;;23.10;33.70;;;;;;5129452;27;20043;-70
2021/12/17 07:41:45;;;;;;;1.02;0.90;;;23.10;33.90;;;;;;5129558;27;20077;-72
2021/12/17 07:44:13;;;;;;;2.08;0.80;;;23.10;34.00;;;;;;5129090;27;20047;-65
2021/12/17 07:46:40;;;;;;;0.80;0.80;;;23.20;34.00;;;;;;5121618;27;20051;-67
2021/12/17 07:49:07;;;;;;;1.55;0.60;;;23.20;34.10;;;;;;5129795;28;20445;-66
2021/12/17 07:51:36;;;;;;;2.50;0.80;;;23.30;34.10;;;;;;5111919;28;20047;-75
2021/12/17 07:54:03;;;;;;;0.65;0.65;;;23.30;33.80;;;;;;5111087;28;20051;-72
2021/12/17 07:56:37;;;;;;;0.88;0.75;;;23.30;33.80;;;;;;5126222;27;20096;-70
2021/12/17 07:59:06;;;;;;;2.67;0.90;;;23.40;33.90;;;;;;5128833;28;20051;-71
2021/12/17 08:01:35;;;;;;;1.88;0.70;;;23.40;34.00;;;;;;5130722;28;20047;-67
2021/12/17 08:04:04;;;;;;;3.28;0.75;;;23.50;34.00;;;;;;5132109;28;20047;-65
2021/12/17 08:06:32;;;;;;;2.78;1.20;;;23.50;33.90;;;;;;5124563;27;20051;-68
2021/12/17 08:08:59;;;;;;;1.75;0.73;;;23.50;33.70;;;;;;5091139;28;20097;-70
2021/12/17 08:11:26;;;;;;;1.20;0.73;;;23.50;33.50;;;;;;5109965;28;20121;-64
2021/12/17 08:13:56;;;;;;;3.70;0.90;;;23.50;33.50;;;;;;5109772;28;20546;-66
2021/12/17 08:16:35;;;;;;;2.17;0.70;;;23.60;33.30;;;;;;5115643;27;20445;-67
2021/12/17 08:23:08;;;;;;;1.00;0.63;;;23.60;33.20;;;;;;5129908;28;20108;-66
2021/12/17 08:24:48;;;;;;;1.13;0.70;;;23.60;33.00;;;;;;5129854;28;20047;-73
2021/12/17 08:27:29;;;;;;;0.65;0.65;;;23.60;33.10;;;;;;5126574;27;20039;-67
2021/12/17 08:30:20;;;;;;;0.70;0.70;;;23.60;33.10;;;;;;5133948;27;20104;-68
2021/12/17 08:32:45;;;;;;;2.83;0.77;;;23.70;33.10;;;;;;5133862;27;20387;-68
2021/12/17 08:35:13;;;;;;;1.30;0.60;;;23.70;33.10;;;;;;5133846;27;20048;-66
2021/12/17 08:37:41;;;;;;;1.48;0.90;;;23.70;32.90;;;;;;5128972;27;20081;-65
2021/12/17 08:40:09;;;;;;;0.47;0.47;;;23.70;32.90;;;;;;5127765;27;20051;-66
2021/12/17 08:42:37;;;;;;;1.00;0.70;;;23.70;32.80;;;;;;5127826;27;20051;-68
2021/12/17 08:45:09;;;;;;;1.00;0.63;;;23.80;32.70;;;;;;5127848;27;20430;-70
2021/12/17 08:47:37;;;;;;;1.15;0.80;;;23.80;32.50;;;;;;5126736;27;20151;-69
2021/12/17 08:50:07;;;;;;;1.38;0.73;;;23.80;32.60;;;;;;5122830;27;20079;-70
2021/12/17 08:52:34;;;;;;;1.10;0.90;;;23.80;32.50;;;;;;5125424;27;20388;-73
2021/12/17 08:55:03;;;;;;;1.33;0.70;;;23.80;32.30;;;;;;5125071;27;20047;-70
2021/12/17 08:57:32;;;;;;;0.60;0.60;;;23.90;32.10;;;;;;5108049;27;20423;-70
2021/12/17 09:00:04;;;;;;;0.85;0.70;;;23.90;31.90;;;;;;5124893;27;20889;-75
2021/12/17 09:02:35;;;;;;;0.65;0.65;;;23.90;31.90;;;;;;5130485;27;20050;-71
2021/12/17 09:05:06;;;;;;;;;;;23.90;31.90;;;;;;5130369;27;20046;-70
2021/12/17 09:07:33;;;;;;;3.20;0.60;;;23.90;31.90;;;;;;5129124;27;20372;-69
2021/12/17 09:10:04;;;;;;;0.65;0.57;;;23.90;32.00;;;;;;5127156;27;20046;-71
2021/12/17 09:12:33;;;;;;;1.30;0.90;;;23.90;31.80;;;;;;5130257;27;20456;-73
2021/12/17 09:15:00;;;;;;;0.88;0.82;;;23.90;31.50;;;;;;5130651;27;20085;-68
2021/12/17 09:17:27;;;;;;;19.05;0.95;;;23.90;31.90;;;;;;5106535;28;20104;-74
2021/12/17 09:19:54;;;;;;;2.05;0.60;;;23.90;32.00;;;;;;5126420;27;20046;-69
2021/12/17 09:22:22;;;;;;;0.88;0.60;;;23.90;32.40;;;;;;5129939;27;20066;-74
2021/12/17 09:24:49;;;;;;;4.85;1.20;;;24.00;32.70;;;;;;5132084;27;20112;-76
2021/12/17 09:30:41;;;;;;;1.63;1.00;;;24.10;32.60;;;;;;5124486;27;20051;-76
2021/12/17 09:33:08;;;;;;;1.52;0.85;;;24.10;32.50;;;;;;5130693;27;20043;-70
2021/12/17 09:35:36;;;;;;;1.58;1.33;;;24.10;32.50;;;;;;5127196;27;20100;-70
2021/12/17 09:38:03;;;;;;;0.60;0.57;;;24.10;32.50;;;;;;5130778;27;20073;-67
2021/12/17 09:40:31;;;;;;;1.55;1.23;;;24.10;32.40;;;;;;5123864;27;20051;-67
2021/12/17 09:42:58;;;;;;;0.80;0.70;;;24.20;32.60;;;;;;5128166;27;20085;-68
2021/12/17 09:45:25;;;;;;;1.75;0.93;;;24.20;32.30;;;;;;5131415;27;20120;-67
2021/12/17 09:47:53;;;;;;;1.08;0.63;;;24.30;32.30;;;;;;5128021;27;20364;-65
2021/12/17 09:50:22;;;;;;;2.05;0.77;;;24.30;32.30;;;;;;5129643;27;20069;-67
2021/12/17 09:56:30;;;;;;;4.38;0.68;;;24.50;32.40;;;;;;5111348;28;20042;-65
2021/12/17 09:58:57;;;;;;;1.48;0.90;;;24.50;32.20;;;;;;5092232;28;20131;-74
2021/12/17 10:01:25;;;;;;;5.25;1.00;;;24.60;32.30;;;;;;5124805;27;20046;-70
2021/12/17 10:04:14;;;;;;;4.28;0.80;;;24.60;32.40;;;;;;5132163;27;20392;-67
2021/12/17 10:06:42;;;;;;;2.63;0.93;;;24.60;32.60;;;;;;5131424;27;20050;-68
2021/12/17 10:09:10;;;;;;;0.68;0.63;;;24.60;32.90;;;;;;5131044;27;20051;-73
2021/12/17 10:11:37;;;;;;;1.20;0.70;;;24.70;33.20;;;;;;5128099;27;20077;-70
2021/12/17 10:14:24;;;;;;;1.67;0.60;;;24.70;33.50;;;;;;5152769;27;20051;-71
2021/12/17 10:17:04;;;;;;;0.85;0.70;;;24.70;33.50;;;;;;5153666;27;20046;-71
2021/12/17 10:19:50;;;;;;;2.50;0.70;;;24.60;33.60;;;;;;5153406;27;20053;-75
2021/12/17 10:22:20;;;;;;;1.08;0.80;;;24.60;33.50;;;;;;5126472;27;20480;-73
2021/12/17 10:25:08;;;;;;;1.10;0.90;;;24.60;33.30;;;;;;5130195;27;20104;-71
2021/12/17 10:27:38;;;;;;;2.45;0.90;;;24.60;33.20;;;;;;5132189;27;20043;-74
2021/12/17 10:30:21;;;;;;;1.25;1.00;;;24.60;33.20;;;;;;5113936;27;20569;-71
2021/12/17 10:32:52;;;;;;;0.80;0.70;;;24.70;33.10;;;;;;5110761;27;20039;-67
2021/12/17 10:35:21;;;;;;;0.77;0.77;;;24.70;33.00;;;;;;5131713;27;20078;-76
2021/12/17 10:37:55;;;;;;;1.10;1.00;;;24.70;33.00;;;;;;5131526;27;20096;-70
2021/12/17 10:40:33;;;;;;;1.38;1.05;;;24.70;33.20;;;;;;5129980;27;20047;-70
2021/12/17 10:43:27;;;;;;;1.00;0.90;;;24.70;33.30;;;;;;5112732;27;20205;-71
2021/12/17 10:46:00;;;;;;;3.38;1.50;;;24.70;33.00;;;;;;5130634;27;20051;-68
2021/12/17 10:48:38;;;;;;;1.55;1.00;;;24.70;32.90;;;;;;5130110;27;20071;-71
2021/12/17 10:51:47;;;;;;;2.17;0.90;;;24.70;32.80;;;;;;5128435;27;20051;-67
2021/12/17 10:54:20;;;;;;;6.63;0.90;;;24.70;32.80;;;;;;5110328;28;20044;-74
2021/12/17 10:56:49;;;;;;;2.72;0.80;;;24.70;33.10;;;;;;5110007;28;20599;-71
2021/12/17 10:59:25;;;;;;;3.17;1.37;;;24.70;32.60;;;;;;5110205;28;20078;-72
2021/12/17 11:02:10;;;;;;;1.33;0.75;;;24.70;32.70;;;;;;5109985;28;20276;-72
2021/12/17 11:04:42;;;;;;;1.58;0.90;;;24.70;32.80;;;;;;5123137;27;20450;-72
2021/12/17 11:07:13;;;;;;;0.70;0.70;;;24.70;32.60;;;;;;5114863;27;20452;-71
2021/12/17 11:09:57;;;;;;;0.77;0.77;;;24.70;32.40;;;;;;5118909;27;20093;-69
2021/12/17 11:15:53;;;;;;;5.25;1.88;;;24.70;32.00;;;;;;5123373;27;20101;-80
2021/12/17 11:18:23;;;;;;;2.13;1.48;;;24.60;29.20;;;;;;5124823;27;20556;-72
2021/12/17 11:20:52;;;;;;;3.53;1.50;;;24.50;29.80;;;;;;5129633;27;20487;-70
2021/12/17 11:23:23;;;;;;;1.17;1.00;;;24.40;30.10;;;;;;5127234;27;20073;-70
2021/12/17 11:25:55;;;;;;;1.17;1.08;;;24.40;30.50;;;;;;5118039;27;20705;-67
2021/12/17 11:28:23;;;;;;;1.58;0.88;;;24.30;30.70;;;;;;5128687;27;20095;-70
2021/12/17 11:30:51;;;;;;;2.25;1.33;;;24.30;30.90;;;;;;5109950;27;20047;-67
2021/12/17 11:33:19;;;;;;;1.15;1.02;;;24.30;31.10;;;;;;5129460;27;20043;-67
2021/12/17 11:35:49;;;;;;;0.80;0.77;;;24.30;31.00;;;;;;5111563;27;20246;-66
2021/12/17 11:38:41;;;;;;;2.75;1.02;;;24.30;30.90;;;;;;5111954;27;20718;-65
2021/12/17 11:42:00;;;;;;;2.83;0.80;;;24.30;30.80;;;;;;5122655;27;20129;-68
2021/12/17 11:44:40;;;;;;;0.80;0.80;;;24.30;30.70;;;;;;5128523;27;20093;-72
2021/12/17 11:51:12;;;;;;;1.33;0.68;;;24.30;30.80;;;;;;5122118;27;20066;-68
2021/12/17 11:53:55;;;;;;;1.00;0.80;;;24.30;30.60;;;;;;5110600;28;20241;-71
2021/12/17 11:56:48;;;;;;;2.08;0.90;;;24.30;30.70;;;;;;5128178;28;20055;-73
2021/12/17 11:59:34;;;;;;;1.20;0.85;;;24.30;30.70;;;;;;5129806;28;20051;-68
2021/12/17 12:02:23;;;;;;;1.55;0.88;;;24.30;30.80;;;;;;5132210;27;20049;-66
2021/12/17 12:04:57;;;;;;;0.85;0.82;;;24.30;31.00;;;;;;5154764;27;20051;-68
2021/12/17 12:07:34;;;;;;;0.70;0.70;;;24.40;31.10;;;;;;5153792;27;20047;-70
2021/12/17 12:10:21;;;;;;;0.93;0.60;;;24.40;31.10;;;;;;5154131;27;20051;-69
2021/12/17 12:12:56;;;;;;;9.90;0.93;;;24.40;31.10;;;;;;5118174;27;20495;-68
2021/12/17 12:15:31;;;;;;;2.20;0.90;;;24.50;31.20;;;;;;5133968;27;20108;-63
2021/12/17 12:18:15;;;;;;;1.42;1.00;;;24.50;31.50;;;;;;5134562;27;20492;-67
2021/12/17 12:20:52;;;;;;;1.55;0.70;;;24.50;31.70;;;;;;5134456;27;20094;-64
2021/12/17 12:23:40;;;;;;;1.95;0.80;;;24.50;31.90;;;;;;5132912;27;20089;-64
2021/12/17 12:26:20;;;;;;;1.05;0.70;;;24.50;32.00;;;;;;5134523;27;20043;-68
2021/12/17 12:28:56;;;;;;;2.33;1.38;;;24.50;32.00;;;;;;5132933;27;20093;-68
2021/12/17 12:31:45;;;;;;;2.47;1.05;;;24.50;32.10;;;;;;5132456;27;20115;-73
2021/12/17 12:34:17;;;;;;;2.88;0.85;;;24.50;32.20;;;;;;5119348;27;20055;-66
2021/12/17 12:37:23;;;;;;;1.63;1.08;;;24.50;32.00;;;;;;5118293;27;20100;-63
2021/12/17 12:40:16;;;;;;;1.65;0.85;;;24.40;32.00;;;;;;5134122;27;20092;-66
2021/12/17 12:42:49;;;;;;;1.90;1.30;;;24.50;32.20;;;;;;5118500;27;20051;-67
2021/12/17 12:45:17;;;;;;;3.90;1.40;;;24.50;32.10;;;;;;5134003;27;20111;-65
2021/12/17 12:47:54;;;;;;;1.10;0.90;;;24.50;32.00;;;;;;5133194;27;20051;-64
2021/12/17 12:50:27;;;;;;;1.42;1.33;;;24.50;31.90;;;;;;5133895;27;20051;-65
2021/12/17 12:53:06;;;;;;;1.40;1.08;;;24.40;31.80;;;;;;5132616;27;20504;-67
2021/12/17 12:55:40;;;;;;;2.38;1.15;;;24.50;31.70;;;;;;5133180;27;20066;-63
2021/12/17 12:58:15;;;;;;;3.50;0.95;;;24.40;31.80;;;;;;5132337;27;20043;-65
2021/12/17 13:00:54;;;;;;;3.90;1.20;;;24.40;31.60;;;;;;5133309;27;20267;-64
2021/12/17 13:03:28;;;;;;;1.80;1.30;;;24.40;31.60;;;;;;5131257;27;20069;-65
2021/12/17 13:05:59;;;;;;;1.75;0.80;;;24.40;31.60;;;;;;5128918;27;20791;-68
2021/12/17 13:11:51;;;;;;;2.97;0.90;;;24.50;31.70;;;;;;5127432;27;20035;-66
2021/12/17 13:14:23;;;;;;;1.00;0.80;;;24.50;31.60;;;;;;5113503;27;20043;-66
2021/12/17 13:17:18;;;;;;;1.05;1.05;;;24.40;31.80;;;;;;5137196;27;20047;-65
2021/12/17 13:22:54;;;;;;;3.33;1.00;;;24.40;31.50;;;;;;5130364;27;20039;-65
2021/12/17 13:25:26;;;;;;;1.30;1.15;;;24.40;31.40;;;;;;5124146;27;20035;-69
2021/12/17 13:27:57;;;;;;;2.25;1.00;;;24.30;31.30;;;;;;5129852;27;20047;-68
2021/12/17 13:30:25;;;;;;;2.53;0.90;;;24.30;31.20;;;;;;5153378;27;20039;-67
2021/12/17 13:32:54;;;;;;;2.00;1.10;;;24.30;31.10;;;;;;5129062;27;20047;-67
2021/12/17 13:35:26;;;;;;;1.92;1.10;;;24.30;31.10;;;;;;5129920;27;20092;-68
2021/12/17 13:38:01;;;;;;;1.25;1.15;;;24.20;31.00;;;;;;5114735;27;20090;-67
2021/12/17 13:40:30;;;;;;;1.23;1.13;;;24.20;31.10;;;;;;5125319;27;20089;-66
2021/12/17 13:43:00;;;;;;;0.73;0.73;;;24.20;31.10;;;;;;5113533;27;20047;-67
2021/12/17 13:45:27;;;;;;;1.77;0.90;;;24.20;31.10;;;;;;5131553;27;20152;-66
2021/12/17 13:47:57;;;;;;;1.38;0.80;;;24.20;31.00;;;;;;5132000;27;20043;-65
2021/12/17 13:50:40;;;;;;;1.27;0.68;;;24.20;31.00;;;;;;5131046;27;20051;-67
2021/12/17 13:53:15;;;;;;;3.45;0.93;;;24.20;31.20;;;;;;5132228;27;20043;-66
2021/12/17 13:56:03;;;;;;;0.65;0.65;;;24.20;31.10;;;;;;5133104;27;20130;-66
2021/12/17 13:58:34;;;;;;;;;;;24.10;30.90;;;;;;5133057;27;20051;-65
2021/12/17 14:01:06;;;;;;;1.65;0.80;;;24.10;30.80;;;;;;5133642;27;20364;-66
2021/12/17 14:03:38;;;;;;;1.35;1.00;;;24.10;30.80;;;;;;5131730;27;20100;-65
2021/12/17 14:06:22;;;;;;;0.68;0.63;;;24.00;30.80;;;;;;5130369;27;20135;-67
2021/12/17 14:08:51;;;;;;;2.00;1.00;;;24.00;30.80;;;;;;5133120;27;20271;-66
2021/12/17 14:11:29;;;;;;;1.83;0.90;;;23.90;31.10;;;;;;5131184;27;20039;-66
2021/12/17 14:14:27;;;;;;;3.10;1.00;;;23.90;31.40;;;;;;5115786;27;20039;-66
2021/12/17 14:17:00;;;;;;;1.73;0.85;;;23.90;31.90;;;;;;5130915;27;20046;-66
2021/12/17 14:19:42;;;;;;;0.95;0.90;;;23.90;32.10;;;;;;5132440;27;20047;-66
2021/12/17 14:25:41;;;;;;;0.88;0.88;;;23.80;31.90;;;;;;5147099;27;20046;-66
2021/12/17 14:28:25;;;;;;;1.63;1.08;;;23.80;31.80;;;;;;5137940;27;20064;-66
2021/12/17 14:31:04;;;;;;;1.70;0.90;;;23.80;31.60;;;;;;5143786;27;20047;-67
2021/12/17 14:33:46;;;;;;;0.90;0.88;;;23.80;31.50;;;;;;5130255;27;20479;-67
2021/12/17 14:36:20;;;;;;;2.10;1.00;;;23.80;31.40;;;;;;5128524;27;20385;-66
2021/12/17 14:38:51;;;;;;;;;;;23.70;31.30;;;;;;5132477;27;20673;-66
2021/12/17 14:41:30;;;;;;;3.33;1.10;;;23.70;31.20;;;;;;5129925;27;19919;-66
2021/12/17 14:44:05;;;;;;;1.60;0.90;;;23.60;31.10;;;;;;5125524;27;20046;-67
2021/12/17 14:46:47;;;;;;;1.55;0.82;;;23.60;31.10;;;;;;5113742;27;20073;-67
2021/12/17 14:57:15;;;;;;;1.23;0.80;;;23.60;31.00;;;;;;5132287;27;20046;-67
2021/12/17 14:59:26;;;;;;;2.15;0.85;;;23.50;30.80;;;;;;5129217;27;20044;-68
2021/12/17 15:00:52;;;;;;;2.00;0.90;;;23.50;30.70;;;;;;5126185;27;20368;-66
2021/12/17 15:03:28;;;;;;;1.65;0.93;;;23.50;30.70;;;;;;5128777;27;20410;-66
2021/12/17 15:06:01;;;;;;;1.40;1.03;;;23.50;30.70;;;;;;5121522;27;20044;-66
2021/12/17 15:08:29;;;;;;;0.88;0.85;;;23.40;30.70;;;;;;5124619;27;20054;-66
2021/12/17 15:10:58;;;;;;;0.80;0.77;;;23.40;30.70;;;;;;5108942;28;20043;-67
2021/12/17 15:13:25;;;;;;;1.63;1.10;;;23.40;30.70;;;;;;5130102;27;20078;-66
2021/12/17 15:15:54;;;;;;;2.22;0.95;;;23.40;30.70;;;;;;5129165;27;20485;-66
2021/12/17 15:18:21;;;;;;;0.98;0.75;;;23.40;30.70;;;;;;5131347;27;20104;-66
2021/12/17 15:20:50;;;;;;;2.40;0.98;;;23.40;30.60;;;;;;5128841;27;20047;-66
2021/12/17 15:23:18;;;;;;;1.17;0.90;;;23.30;30.50;;;;;;5129139;27;20090;-66
2021/12/17 15:25:47;;;;;;;2.92;1.00;;;23.30;30.50;;;;;;5126974;27;20295;-66
2021/12/17 15:31:54;;;;;;;2.03;0.77;;;23.30;30.50;;;;;;5115935;27;20147;-66
2021/12/17 15:34:21;;;;;;;1.35;0.85;;;23.30;31.10;;;;;;5119006;27;20089;-66
2021/12/17 15:36:49;;;;;;;1.17;1.08;;;23.30;30.50;;;;;;5116648;27;20125;-66
2021/12/17 15:39:16;;;;;;;1.05;0.68;;;23.30;30.50;;;;;;5131389;27;20480;-66
2021/12/17 15:45:20;;;;;;;1.55;0.82;;;23.20;30.50;;;;;;5128186;27;20104;-66
2021/12/17 15:47:48;;;;;;;1.75;1.35;;;23.20;30.60;;;;;;5130144;27;20046;-66
2021/12/17 15:50:15;;;;;;;1.60;0.80;;;23.10;30.50;;;;;;5130649;27;20053;-66
2021/12/17 15:52:46;;;;;;;1.33;1.00;;;23.10;30.60;;;;;;5129998;27;20130;-67
2021/12/17 15:55:23;;;;;;;2.05;0.90;;;23.10;30.60;;;;;;5110556;28;20047;-66
2021/12/17 15:57:54;;;;;;;2.38;1.13;;;23.10;30.60;;;;;;5129898;28;20108;-66
2021/12/17 16:00:24;;;;;;;1.10;0.90;;;23.10;30.60;;;;;;5125005;28;20051;-66
2021/12/17 16:02:51;;;;;;;;;;;23.00;30.60;;;;;;5109874;28;20576;-66